Time;durP1;ratioP1;P1;durP2;ratioP2;P2;SDS_P1;SDS_P2;PMS_P1;PMS_P2;Temp;Humidity;BMP_temperature;BMP_pressure;BME280_temperature;BME280_humidity;BME280_pressure;Samples;Min_cycle;Max_cycle;Signal;HPM_P1;HPM_P2
2021/10/19 00:00:25;;;;;;;;;;;;;;;21.61;54.45;102332.53;2101069;28;834;-67
2021/10/19 00:01:25;;;;;;;;;;;;;;;21.58;54.48;102330.78;2108698;28;1164;-68
2021/10/19 00:02:26;;;;;;;;;;;;;;;21.61;54.69;102327.16;2108839;28;840;-67
2021/10/19 00:03:26;;;;;;;;;;;;;;;21.51;56.62;102329.06;2101034;28;826;-68
2021/10/19 00:04:26;;;;;;;;;;;;;;;21.62;53.28;102331.66;2100994;28;763;-68
2021/10/19 00:05:26;;;;;;;;;;;;;;;21.53;54.40;102329.06;2092124;28;1419;-67
2021/10/19 00:06:27;;;;;;;;;;;;;;;21.53;55.60;102329.06;2092128;28;906;-70
2021/10/19 00:07:27;;;;;;;;;;;;;;;21.52;55.29;102325.47;2100982;28;787;-67
2021/10/19 00:08:27;;;;;;;;;;;;;;;21.56;54.24;102326.31;2100788;28;1178;-68
2021/10/19 00:09:27;;;;;;;;;;;;;;;21.62;54.32;102323.56;2100939;28;846;-67
2021/10/19 00:10:27;;;;;;;;;;;;;;;21.55;54.82;102330.81;2100945;28;976;-68
2021/10/19 00:11:27;;;;;;;;;;;;;;;21.61;53.42;102329.84;2100569;28;784;-69
2021/10/19 00:12:28;;;;;;;;;;;;;;;21.61;54.59;102329.84;2100865;28;957;-68
2021/10/19 00:13:28;;;;;;;;;;;;;;;21.69;54.22;102333.38;2100873;28;924;-67
2021/10/19 00:14:28;;;;;;;;;;;;;;;21.59;54.19;102332.56;2100839;28;794;-69
2021/10/19 00:15:28;;;;;;;;;;;;;;;21.56;54.83;102335.28;2100922;28;927;-66
2021/10/19 00:16:28;;;;;;;;;;;;;;;21.50;55.06;102331.81;2100764;28;1951;-69
2021/10/19 00:17:29;;;;;;;;;;;;;;;21.51;55.46;102329.06;2100889;28;1308;-68
2021/10/19 00:18:29;;;;;;;;;;;;;;;21.52;54.53;102330.84;2100925;28;795;-68
2021/10/19 00:19:29;;;;;;;;;;;;;;;21.56;54.49;102331.72;2100725;28;956;-67
2021/10/19 00:20:29;;;;;;;;;;;;;;;21.56;53.58;102329.03;2100962;28;826;-67
2021/10/19 00:21:30;;;;;;;;;;;;;;;21.62;54.42;102328.97;2100832;28;989;-68
2021/10/19 00:22:30;;;;;;;;;;;;;;;21.52;55.26;102333.53;2100887;28;1043;-68
2021/10/19 00:23:30;;;;;;;;;;;;;;;21.46;55.42;102325.56;2100788;28;1009;-67
2021/10/19 00:24:31;;;;;;;;;;;;;;;21.40;55.10;102326.53;2100633;28;809;-67
2021/10/19 00:25:31;;;;;;;;;;;;;;;21.41;55.07;102330.13;2100994;28;775;-67
2021/10/19 00:26:31;;;;;;;;;;;;;;;21.42;55.61;102324.69;2100853;28;846;-69
2021/10/19 00:27:35;;;;;;;;;;;;;;;21.53;53.99;102324.53;2100517;28;756;-68
2021/10/19 00:28:36;;;;;;;;;;;;;;;21.46;55.21;102321.06;2100342;28;836;-67
2021/10/19 00:29:36;;;;;;;;;;;;;;;21.41;55.90;102328.31;2100828;28;791;-67
2021/10/19 00:30:37;;;;;;;;;;;;;;;21.39;54.67;102335.53;2100634;28;767;-67
2021/10/19 00:31:37;;;;;;;;;;;;;;;21.40;55.21;102326.53;2100671;28;854;-68
2021/10/19 00:32:38;;;;;;;;;;;;;;;21.46;54.92;102322.88;2100728;28;810;-68
2021/10/19 00:33:38;;;;;;;;;;;;;;;21.44;55.42;102324.69;2100727;28;869;-68
2021/10/19 00:34:38;;;;;;;;;;;;;;;21.50;54.86;102326.41;2100666;28;977;-67
2021/10/19 00:35:38;;;;;;;;;;;;;;;21.48;53.75;102330.03;2100850;28;969;-67
2021/10/19 00:36:38;;;;;;;;;;;;;;;21.45;54.47;102330.06;2100679;28;1882;-69
2021/10/19 00:37:39;;;;;;;;;;;;;;;21.42;55.85;102326.53;2100765;28;1232;-68
2021/10/19 00:38:39;;;;;;;;;;;;;;;21.41;55.00;102325.63;2100630;28;771;-67
2021/10/19 00:39:39;;;;;;;;;;;;;;;21.49;55.22;102330.91;2100726;28;851;-68
2021/10/19 00:40:39;;;;;;;;;;;;;;;21.40;54.24;102326.53;2100786;28;1012;-67
2021/10/19 00:41:40;;;;;;;;;;;;;;;21.40;55.95;102321.13;2100608;28;972;-68
2021/10/19 00:42:40;;;;;;;;;;;;;;;21.37;55.57;102329.25;2100872;28;1419;-68
2021/10/19 00:43:40;;;;;;;;;;;;;;;21.38;56.87;102317.56;2100731;28;985;-67
2021/10/19 00:44:40;;;;;;;;;;;;;;;21.36;55.54;102322.09;2100691;28;771;-67
2021/10/19 00:45:40;;;;;;;;;;;;;;;21.38;55.12;102316.69;2100813;28;841;-67
2021/10/19 00:46:42;;;;;;;;;;;;;;;21.38;55.03;102322.97;2100422;28;893;-69
2021/10/19 00:47:51;;;;;;;;;;;;;;;21.37;55.12;102323.88;2100722;28;1120;-69
2021/10/19 00:48:52;;;;;;;;;;;;;;;21.37;55.63;102314.91;2100664;28;783;-67
2021/10/19 00:49:53;;;;;;;;;;;;;;;21.38;54.48;102324.78;2100442;28;807;-68
2021/10/19 00:50:54;;;;;;;;;;;;;;;21.40;55.01;102325.66;2100845;28;775;-67
2021/10/19 00:51:55;;;;;;;;;;;;;;;21.36;55.06;102322.09;2100462;28;868;-69
2021/10/19 00:52:56;;;;;;;;;;;;;;;21.32;55.89;102323.94;2100690;28;992;-68
2021/10/19 00:53:56;;;;;;;;;;;;;;;21.37;55.33;102321.19;2100508;28;913;-68
2021/10/19 00:54:56;;;;;;;;;;;;;;;21.48;54.10;102321.06;2100278;28;855;-68
2021/10/19 00:55:56;;;;;;;;;;;;;;;21.40;54.48;102321.13;2100282;28;1993;-67
2021/10/19 00:56:57;;;;;;;;;;;;;;;21.40;54.69;102320.25;2100572;28;1012;-69
2021/10/19 00:57:57;;;;;;;;;;;;;;;21.35;54.91;102319.44;2100363;28;852;-68
2021/10/19 00:58:58;;;;;;;;;;;;;;;21.36;54.71;102322.09;2100518;28;964;-68
2021/10/19 00:59:58;;;;;;;;;;;;;;;21.31;56.28;102321.25;2100465;28;929;-67
2021/10/19 01:00:58;;;;;;;;;;;;;;;21.39;55.04;102319.34;2100436;28;795;-67
2021/10/19 01:01:58;;;;;;;;;;;;;;;21.45;54.03;102313.00;2100548;28;905;-68
2021/10/19 01:02:59;;;;;;;;;;;;;;;21.42;54.50;102316.63;2100605;28;969;-67
2021/10/19 01:03:59;;;;;;;;;;;;;;;21.40;54.69;102322.97;2100423;28;983;-68
2021/10/19 01:04:59;;;;;;;;;;;;;;;21.37;54.47;102318.47;2100521;28;775;-68
2021/10/19 01:06:00;;;;;;;;;;;;;;;21.23;55.31;102313.28;2100578;28;1558;-67
2021/10/19 01:07:00;;;;;;;;;;;;;;;21.38;56.49;102314.00;2100413;28;1212;-68
2021/10/19 01:08:01;;;;;;;;;;;;;;;21.38;55.02;102317.56;2100534;28;1019;-68
2021/10/19 01:09:02;;;;;;;;;;;;;;;21.34;55.42;102310.44;2100424;28;735;-67
2021/10/19 01:10:03;;;;;;;;;;;;;;;21.28;55.85;102315.91;2100380;28;1206;-68
2021/10/19 01:11:07;;;;;;;;;;;;;;;21.32;54.13;102317.66;2100482;28;1287;-67
2021/10/19 01:12:08;;;;;;;;;;;;;;;21.40;54.32;102309.47;2100338;28;785;-69
2021/10/19 01:13:09;;;;;;;;;;;;;;;21.37;54.29;102315.78;2100487;28;794;-67
2021/10/19 01:14:09;;;;;;;;;;;;;;;21.31;55.52;102310.47;2100457;28;794;-67
2021/10/19 01:15:10;;;;;;;;;;;;;;;21.28;54.75;102308.72;2100276;28;747;-68
2021/10/19 01:16:11;;;;;;;;;;;;;;;21.24;55.59;102308.78;2100393;28;1902;-67
2021/10/19 01:17:11;;;;;;;;;;;;;;;21.27;55.25;102314.13;2100345;28;970;-68
2021/10/19 01:18:15;;;;;;;;;;;;;;;21.29;55.38;102309.59;2100411;28;870;-68
2021/10/19 01:19:21;;;;;;;;;;;;;;;21.23;57.22;102310.59;2100372;28;818;-67
2021/10/19 01:20:29;;;;;;;;;;;;;;;21.26;55.38;102306.94;2100228;28;895;-67
2021/10/19 01:21:30;;;;;;;;;;;;;;;21.22;56.44;102297.13;2100525;28;830;-68
2021/10/19 01:22:30;;;;;;;;;;;;;;;21.29;55.77;102301.50;2100268;28;972;-68
2021/10/19 01:23:30;;;;;;;;;;;;;;;21.27;55.46;102292.56;2100471;28;827;-68
2021/10/19 01:24:30;;;;;;;;;;;;;;;21.30;55.39;102290.72;2100277;28;802;-67
2021/10/19 01:25:32;;;;;;;;;;;;;;;21.28;54.96;102295.25;2100202;28;841;-67
2021/10/19 01:26:32;;;;;;;;;;;;;;;21.26;55.56;102294.38;2100350;28;767;-67
2021/10/19 01:27:32;;;;;;;;;;;;;;;21.27;54.63;102285.38;2100375;28;783;-69
2021/10/19 01:28:33;;;;;;;;;;;;;;;21.29;55.78;102290.72;2100319;28;874;-68
2021/10/19 01:29:33;;;;;;;;;;;;;;;21.25;55.35;102289.00;2099676;28;894;-67
2021/10/19 01:30:40;;;;;;;;;;;;;;;21.24;55.14;102289.91;2099766;28;767;-67
2021/10/19 01:31:44;;;;;;;;;;;;;;;21.29;54.40;102280.88;2100355;28;1134;-68
2021/10/19 01:32:45;;;;;;;;;;;;;;;21.27;55.93;102288.06;2099839;28;1706;-69
2021/10/19 01:33:45;;;;;;;;;;;;;;;21.33;54.99;102287.09;2100401;28;892;-68
2021/10/19 01:34:45;;;;;;;;;;;;;;;21.27;55.77;102281.78;2100217;28;917;-67
2021/10/19 01:35:46;;;;;;;;;;;;;;;21.31;55.36;102284.44;2100294;28;1008;-68
2021/10/19 01:36:46;;;;;;;;;;;;;;;21.33;55.23;102279.00;2100190;28;1952;-67
2021/10/19 01:37:47;;;;;;;;;;;;;;;21.35;55.21;102274.47;2100159;28;763;-69
2021/10/19 01:38:47;;;;;;;;;;;;;;;21.31;55.92;102272.75;2100271;28;1018;-68
2021/10/19 01:39:47;;;;;;;;;;;;;;;21.24;55.74;102276.44;2100001;28;809;-68
2021/10/19 01:40:47;;;;;;;;;;;;;;;21.27;55.51;102271.00;2099616;28;981;-67
2021/10/19 01:41:47;;;;;;;;;;;;;;;21.27;56.07;102277.28;2100240;28;790;-67
2021/10/19 01:42:48;;;;;;;;;;;;;;;21.26;54.98;102275.50;2100109;28;917;-68
2021/10/19 01:43:49;;;;;;;;;;;;;;;21.25;55.64;102278.22;2100006;28;981;-67
2021/10/19 01:44:49;;;;;;;;;;;;;;;21.32;55.25;102271.81;2100140;28;807;-68
2021/10/19 01:45:51;;;;;;;;;;;;;;;21.31;55.47;102275.44;2100184;28;973;-68
2021/10/19 01:46:51;;;;;;;;;;;;;;;21.25;55.19;102267.44;2100114;28;861;-67
2021/10/19 01:47:51;;;;;;;;;;;;;;;21.23;55.77;102262.06;2100142;28;973;-69
2021/10/19 01:48:51;;;;;;;;;;;;;;;21.26;54.80;102271.91;2100149;28;972;-67
2021/10/19 01:49:51;;;;;;;;;;;;;;;21.29;55.96;102269.19;2100246;28;711;-68
2021/10/19 01:50:51;;;;;;;;;;;;;;;;;;2100077;28;775;-67
2021/10/19 01:51:52;;;;;;;;;;;;;;;21.16;55.22;102269.38;2100239;28;895;-67
2021/10/19 01:52:52;;;;;;;;;;;;;;;21.26;55.35;102270.13;2099951;28;1012;-68
2021/10/19 01:53:52;;;;;;;;;;;;;;;21.21;55.61;102268.38;2100069;28;834;-67
2021/10/19 01:54:52;;;;;;;;;;;;;;;21.20;56.31;102266.63;2100098;28;854;-67
2021/10/19 01:55:53;;;;;;;;;;;;;;;;;;2099804;28;1987;-67
2021/10/19 01:56:53;;;;;;;;;;;;;;;21.21;55.91;102271.06;2100144;28;882;-67
2021/10/19 01:57:53;;;;;;;;;;;;;;;21.19;55.13;102273.81;2091197;28;1364;-68
2021/10/19 01:58:53;;;;;;;;;;;;;;;21.23;55.50;102270.16;2091419;28;722;-68
2021/10/19 01:59:53;;;;;;;;;;;;;;;21.28;53.60;102267.41;2099383;28;1929;-67
2021/10/19 02:00:54;;;;;;;;;;;;;;;21.26;54.59;102263.81;2100029;28;826;-67
2021/10/19 02:01:54;;;;;;;;;;;;;;;21.30;55.09;102262.88;2100004;28;878;-67
2021/10/19 02:02:54;;;;;;;;;;;;;;;;;;2100098;28;811;-68
2021/10/19 02:03:54;;;;;;;;;;;;;;;21.22;55.73;102262.09;2100062;28;1001;-67
2021/10/19 02:04:55;;;;;;;;;;;;;;;21.30;53.88;102266.47;2100043;28;965;-67
2021/10/19 02:05:55;;;;;;;;;;;;;;;21.18;55.55;102262.16;2100045;28;679;-68
2021/10/19 02:06:55;;;;;;;;;;;;;;;21.25;54.97;102264.75;2100088;28;1497;-67
2021/10/19 02:07:55;;;;;;;;;;;;;;;21.28;55.50;102257.53;2099928;28;1056;-67
2021/10/19 02:08:55;;;;;;;;;;;;;;;21.25;55.89;102262.03;2099993;28;767;-68
2021/10/19 02:09:56;;;;;;;;;;;;;;;21.24;55.28;102261.16;2091169;28;800;-66
2021/10/19 02:10:56;;;;;;;;;;;;;;;21.18;55.92;102262.16;2090940;28;823;-69
2021/10/19 02:11:56;;;;;;;;;;;;;;;21.26;55.46;102258.44;2099925;28;1024;-67
2021/10/19 02:12:56;;;;;;;;;;;;;;;21.24;54.75;102260.25;2099841;28;818;-67
2021/10/19 02:13:57;;;;;;;;;;;;;;;21.25;55.52;102256.66;2099900;28;1404;-67
2021/10/19 02:14:57;;;;;;;;;;;;;;;21.23;55.15;102254.00;2100073;28;984;-67
2021/10/19 02:15:57;;;;;;;;;;;;;;;21.20;55.92;102254.03;2099481;28;1960;-69
2021/10/19 02:16:57;;;;;;;;;;;;;;;21.14;56.05;102259.50;2099875;28;976;-68
2021/10/19 02:17:57;;;;;;;;;;;;;;;21.10;56.00;102247.91;2099959;28;1039;-67
2021/10/19 02:18:57;;;;;;;;;;;;;;;21.18;55.13;102251.38;2099919;28;980;-67
2021/10/19 02:20:00;;;;;;;;;;;;;;;21.12;55.66;102240.69;2099973;28;973;-66
2021/10/19 02:21:00;;;;;;;;;;;;;;;21.25;54.31;102249.47;2099997;28;672;-68
2021/10/19 02:22:00;;;;;;;;;;;;;;;;;;2100000;28;767;-66
2021/10/19 02:23:01;;;;;;;;;;;;;;;21.20;54.96;102245.06;2099930;28;787;-67
2021/10/19 02:24:01;;;;;;;;;;;;;;;;;;2099526;28;977;-67
2021/10/19 02:25:02;;;;;;;;;;;;;;;21.32;55.03;102250.25;2099892;28;834;-67
2021/10/19 02:26:02;;;;;;;;;;;;;;;21.28;54.35;102254.81;2099933;28;977;-68
2021/10/19 02:27:02;;;;;;;;;;;;;;;21.14;56.25;102251.41;2099957;28;960;-68
2021/10/19 02:28:03;;;;;;;;;;;;;;;21.18;54.72;102253.16;2099990;28;821;-65
2021/10/19 02:29:03;;;;;;;;;;;;;;;21.16;56.58;102252.28;2099657;28;1200;-68
2021/10/19 02:30:04;;;;;;;;;;;;;;;21.27;55.24;102255.75;2099990;28;823;-66
2021/10/19 02:31:06;;;;;;;;;;;;;;;21.23;55.57;102251.31;2099884;28;1060;-67
2021/10/19 02:32:06;;;;;;;;;;;;;;;21.23;55.47;102256.69;2099712;28;792;-67
2021/10/19 02:33:06;;;;;;;;;;;;;;;21.29;54.85;102251.22;2099890;28;981;-67
2021/10/19 02:34:06;;;;;;;;;;;;;;;21.18;56.56;102242.38;2099774;28;965;-67
2021/10/19 02:35:07;;;;;;;;;;;;;;;21.25;55.27;102249.47;2099879;28;763;-67
2021/10/19 02:36:07;;;;;;;;;;;;;;;21.28;54.84;102251.22;2099818;28;1890;-66
2021/10/19 02:37:07;;;;;;;;;;;;;;;21.23;56.07;102247.69;2099407;28;1393;-68
2021/10/19 02:38:08;;;;;;;;;;;;;;;21.26;55.67;102239.56;2099953;28;976;-66
2021/10/19 02:39:08;;;;;;;;;;;;;;;21.24;55.41;102242.31;2099824;28;731;-68
2021/10/19 02:40:09;;;;;;;;;;;;;;;21.22;55.88;102243.22;2099854;28;802;-66
2021/10/19 02:41:09;;;;;;;;;;;;;;;21.25;54.16;102238.69;2099702;28;1114;-67
2021/10/19 02:42:09;;;;;;;;;;;;;;;21.28;54.87;102230.56;2099614;28;763;-66
2021/10/19 02:43:09;;;;;;;;;;;;;;;21.18;55.11;102224.44;2099834;28;777;-67
2021/10/19 02:44:10;;;;;;;;;;;;;;;21.30;54.78;102234.13;2099839;28;870;-66
2021/10/19 02:45:11;;;;;;;;;;;;;;;21.27;55.04;102231.47;2099564;28;953;-67
2021/10/19 02:46:12;;;;;;;;;;;;;;;21.17;54.92;102238.81;2099765;28;1029;-66
2021/10/19 02:47:12;;;;;;;;;;;;;;;21.23;55.12;102240.53;2099788;28;1127;-68
2021/10/19 02:48:12;;;;;;;;;;;;;;;21.15;55.80;102232.56;2099727;28;969;-66
2021/10/19 02:49:12;;;;;;;;;;;;;;;21.15;55.83;102234.34;2099669;28;838;-67
2021/10/19 02:50:13;;;;;;;;;;;;;;;21.12;56.35;102240.69;2099771;28;1043;-68
2021/10/19 02:51:13;;;;;;;;;;;;;;;21.18;55.34;102232.50;2099629;28;1130;-68
2021/10/19 02:52:13;;;;;;;;;;;;;;;21.21;55.12;102236.03;2099450;28;773;-65
2021/10/19 02:53:13;;;;;;;;;;;;;;;21.20;55.35;102231.59;2099774;28;847;-67
2021/10/19 02:54:14;;;;;;;;;;;;;;;21.22;56.01;102235.13;2099788;28;826;-66
2021/10/19 02:55:16;;;;;;;;;;;;;;;21.16;56.30;102231.66;2099676;28;764;-68
2021/10/19 02:56:16;;;;;;;;;;;;;;;21.21;55.35;102236.03;2099481;28;1983;-67
2021/10/19 02:57:20;;;;;;;;;;;;;;;21.22;56.13;102229.75;2099764;28;786;-67
2021/10/19 02:58:20;;;;;;;;;;;;;;;21.11;55.61;102222.72;2099683;28;1023;-65
2021/10/19 02:59:20;;;;;;;;;;;;;;;21.17;55.82;102228.03;2099821;28;920;-66
2021/10/19 03:00:20;;;;;;;;;;;;;;;21.12;56.88;102221.81;2099433;28;885;-67
2021/10/19 03:01:21;;;;;;;;;;;;;;;21.13;54.42;102217.31;2099700;28;795;-67
2021/10/19 03:02:21;;;;;;;;;;;;;;;21.17;55.37;102221.75;2099757;28;779;-65
2021/10/19 03:03:21;;;;;;;;;;;;;;;21.19;55.43;102219.91;2099664;28;850;-67
2021/10/19 03:04:21;;;;;;;;;;;;;;;21.20;55.11;102215.44;2099910;28;906;-66
2021/10/19 03:05:22;;;;;;;;;;;;;;;21.15;56.25;102213.69;2099746;28;969;-67
2021/10/19 03:06:22;;;;;;;;;;;;;;;21.14;55.72;102211.00;2099663;28;981;-67
2021/10/19 03:07:22;;;;;;;;;;;;;;;21.13;55.84;102211.91;2099817;28;802;-66
2021/10/19 03:08:22;;;;;;;;;;;;;;;21.14;55.96;102211.91;2099531;28;968;-67
2021/10/19 03:09:22;;;;;;;;;;;;;;;21.15;55.34;102216.38;2099739;28;766;-68
2021/10/19 03:10:22;;;;;;;;;;;;;;;21.17;55.05;102214.56;2099654;28;648;-66
2021/10/19 03:11:24;;;;;;;;;;;;;;;21.15;55.07;102199.31;2099608;28;1215;-66
2021/10/19 03:12:24;;;;;;;;;;;;;;;21.17;55.56;102184.91;2099661;28;799;-66
2021/10/19 03:13:28;;;;;;;;;;;;;;;21.15;55.74;102184.06;2099585;28;870;-67
2021/10/19 03:14:28;;;;;;;;;;;;;;;21.13;56.23;102184.97;2099738;28;930;-67
2021/10/19 03:15:28;;;;;;;;;;;;;;;21.20;55.94;102188.47;2099544;28;810;-66
2021/10/19 03:16:29;;;;;;;;;;;;;;;21.14;55.99;102186.75;2099535;28;1989;-67
2021/10/19 03:17:29;;;;;;;;;;;;;;;21.14;55.60;102182.28;2099630;28;848;-67
2021/10/19 03:18:29;;;;;;;;;;;;;;;21.15;55.72;102189.44;2099543;28;956;-66
2021/10/19 03:19:29;;;;;;;;;;;;;;;21.23;54.87;102189.31;2099676;28;1039;-66
2021/10/19 03:20:30;;;;;;;;;;;;;;;21.13;56.12;102191.25;2099838;28;749;-66
2021/10/19 03:21:30;;;;;;;;;;;;;;;21.14;55.38;102190.34;2099546;28;857;-67
2021/10/19 03:22:30;;;;;;;;;;;;;;;21.14;56.64;102174.19;2099723;28;969;-67
2021/10/19 03:23:31;;;;;;;;;;;;;;;21.16;55.71;102177.75;2099317;28;1059;-66
2021/10/19 03:24:31;;;;;;;;;;;;;;;21.18;55.55;102175.03;2099474;28;894;-66
2021/10/19 03:25:31;;;;;;;;;;;;;;;21.22;54.92;102179.44;2099636;28;973;-67
2021/10/19 03:26:31;;;;;;;;;;;;;;;21.26;55.21;102174.88;2099533;28;811;-66
2021/10/19 03:27:31;;;;;;;;;;;;;;;21.23;55.20;102173.16;2099603;28;794;-66
2021/10/19 03:28:31;;;;;;;;;;;;;;;21.14;55.89;102178.66;2099599;28;976;-65
2021/10/19 03:29:33;;;;;;;;;;;;;;;21.15;55.60;102175.06;2099637;28;835;-67
2021/10/19 03:30:33;;;;;;;;;;;;;;;21.10;55.68;102175.16;2099706;28;803;-66
2021/10/19 03:31:35;;;;;;;;;;;;;;;21.11;56.21;102174.22;2099452;28;787;-66
2021/10/19 03:32:35;;;;;;;;;;;;;;;21.14;56.00;102178.66;2099543;28;852;-66
2021/10/19 03:33:35;;;;;;;;;;;;;;;21.16;55.73;102177.75;2099549;28;798;-67
2021/10/19 03:34:36;;;;;;;;;;;;;;;21.14;55.76;102176.88;2099475;28;835;-66
2021/10/19 03:35:36;;;;;;;;;;;;;;;21.09;55.78;102181.44;2099569;28;1044;-67
2021/10/19 03:36:36;;;;;;;;;;;;;;;21.11;56.35;102182.31;2099298;28;2030;-65
2021/10/19 03:37:36;;;;;;;;;;;;;;;21.14;55.05;102181.38;2099512;28;1505;-68
2021/10/19 03:38:37;;;;;;;;;;;;;;;21.14;55.86;102184.97;2099571;28;965;-66
2021/10/19 03:39:38;;;;;;;;;;;;;;;21.09;56.50;102181.44;2099359;28;1044;-66
2021/10/19 03:40:38;;;;;;;;;;;;;;;21.25;55.41;102181.19;2099574;28;887;-65
2021/10/19 03:41:38;;;;;;;;;;;;;;;21.16;54.70;102183.13;2099543;28;1261;-66
2021/10/19 03:42:41;;;;;;;;;;;;;;;21.20;55.18;102177.72;2099444;28;885;-65
2021/10/19 03:43:41;;;;;;;;;;;;;;;21.27;54.45;102188.34;2099533;28;885;-67
2021/10/19 03:44:41;;;;;;;;;;;;;;;21.26;55.42;102186.56;2099456;28;1055;-66
2021/10/19 03:45:42;;;;;;;;;;;;;;;21.18;56.18;102186.69;2090623;28;976;-67
2021/10/19 03:46:42;;;;;;;;;;;;;;;21.23;55.09;102181.22;2090817;28;854;-66
2021/10/19 03:47:42;;;;;;;;;;;;;;;21.18;54.69;102180.41;2099376;28;985;-65
2021/10/19 03:48:42;;;;;;;;;;;;;;;21.17;55.69;102181.31;2099493;28;1004;-66
2021/10/19 03:49:42;;;;;;;;;;;;;;;21.16;55.49;102176.84;2099539;28;833;-66
2021/10/19 03:50:43;;;;;;;;;;;;;;;21.12;55.21;102176.00;2099602;28;807;-66
2021/10/19 03:51:43;;;;;;;;;;;;;;;21.13;56.72;102176.88;2099418;28;862;-66
2021/10/19 03:52:43;;;;;;;;;;;;;;;21.12;55.82;102169.72;2099332;28;1036;-65
2021/10/19 03:53:43;;;;;;;;;;;;;;;21.16;55.46;102160.69;2099291;28;918;-67
2021/10/19 03:54:43;;;;;;;;;;;;;;;21.16;56.27;102166.06;2099626;28;747;-67
2021/10/19 03:55:46;;;;;;;;;;;;;;;21.19;55.21;102168.72;2099192;28;921;-65
2021/10/19 03:56:46;;;;;;;;;;;;;;;21.17;56.06;102162.47;2099395;28;1922;-68
2021/10/19 03:57:46;;;;;;;;;;;;;;;21.17;55.64;102167.84;2099575;28;985;-66
2021/10/19 03:58:46;;;;;;;;;;;;;;;21.20;54.54;102166.94;2099476;28;980;-66
2021/10/19 03:59:46;;;;;;;;;;;;;;;21.24;54.91;102165.94;2099433;28;980;-64
2021/10/19 04:00:47;;;;;;;;;;;;;;;21.17;55.64;102167.84;2099311;28;1017;-65
2021/10/19 04:01:47;;;;;;;;;;;;;;;21.19;55.72;102171.41;2099503;28;770;-66
2021/10/19 04:02:47;;;;;;;;;;;;;;;21.17;55.80;102173.25;2099458;28;993;-67
2021/10/19 04:03:47;;;;;;;;;;;;;;;21.41;55.66;102169.25;2100083;28;1214;-64
2021/10/19 04:04:47;;;;;;;;;;;;;;;21.99;53.13;102152.16;2100930;28;862;-67
2021/10/19 04:05:47;;;;;;;;;;;;;;;22.35;52.64;102155.03;2100883;28;894;-66
2021/10/19 04:06:48;;;;;;;;;;;;;;;22.49;53.73;102152.06;2101023;28;787;-67
2021/10/19 04:07:48;;;;;;;;;;;;;;;22.59;52.76;102152.78;2100942;28;1148;-69
2021/10/19 04:08:48;;;;;;;;;;;;;;;22.69;53.00;102151.63;2100681;28;1046;-68
2021/10/19 04:09:48;;;;;;;;;;;;;;;22.81;52.54;102147.81;2100936;28;764;-66
2021/10/19 04:10:48;;;;;;;;;;;;;;;22.89;52.53;102151.22;2100925;28;929;-68
2021/10/19 04:11:48;;;;;;;;;;;;;;;23.00;49.83;102153.66;2100908;28;831;-68
2021/10/19 04:12:49;;;;;;;;;;;;;;;23.07;51.72;102154.41;2100831;28;1004;-68
2021/10/19 04:13:49;;;;;;;;;;;;;;;23.13;50.36;102154.25;2100761;28;882;-70
2021/10/19 04:14:49;;;;;;;;;;;;;;;23.17;52.05;102153.28;2091982;28;1080;-68
2021/10/19 04:15:49;;;;;;;;;;;;;;;23.26;49.82;102154.88;2091925;28;973;-66
2021/10/19 04:16:49;;;;;;;;;;;;;;;23.36;51.05;102150.16;2100566;28;1973;-68
2021/10/19 04:17:49;;;;;;;;;;;;;;;23.42;48.37;102149.09;2100797;28;969;-65
2021/10/19 04:18:50;;;;;;;;;;;;;;;23.46;50.78;102149.00;2100856;28;1044;-64
2021/10/19 04:19:50;;;;;;;;;;;;;;;23.54;48.28;102149.72;2100689;28;775;-64
2021/10/19 04:20:50;;;;;;;;;;;;;;;23.56;49.96;102146.03;2100788;28;968;-65
2021/10/19 04:21:50;;;;;;;;;;;;;;;23.54;50.88;102149.72;2100763;28;965;-65
2021/10/19 04:22:51;;;;;;;;;;;;;;;23.50;51.86;102142.59;2100767;28;823;-66
2021/10/19 04:23:51;;;;;;;;;;;;;;;23.50;51.03;102142.59;2100703;28;1075;-64
2021/10/19 04:24:52;;;;;;;;;;;;;;;23.56;49.65;102144.25;2100565;28;969;-64
2021/10/19 04:25:52;;;;;;;;;;;;;;;23.66;49.52;102143.09;2100690;28;784;-64
2021/10/19 04:26:53;;;;;;;;;;;;;;;23.73;48.44;102141.09;2100772;28;1020;-64
2021/10/19 04:27:53;;;;;;;;;;;;;;;23.75;49.48;102141.94;2100783;28;961;-63
2021/10/19 04:28:53;;;;;;;;;;;;;;;23.75;47.85;102136.53;2100794;28;826;-65
2021/10/19 04:29:53;;;;;;;;;;;;;;;23.79;48.03;102142.78;2100790;28;977;-66
2021/10/19 04:30:53;;;;;;;;;;;;;;;23.81;48.90;102147.19;2100637;28;886;-64
2021/10/19 04:31:54;;;;;;;;;;;;;;;23.81;50.72;102144.50;2100741;28;973;-65
2021/10/19 04:32:54;;;;;;;;;;;;;;;23.85;50.28;102139.88;2100396;28;977;-65
2021/10/19 04:33:56;;;;;;;;;;;;;;;23.84;49.48;102147.13;2100319;28;1108;-64
2021/10/19 04:34:56;;;;;;;;;;;;;;;23.82;52.03;102143.56;2100726;28;763;-63
2021/10/19 04:35:56;;;;;;;;;;;;;;;23.92;51.01;102143.31;2100701;28;749;-63
2021/10/19 04:36:56;;;;;;;;;;;;;;;23.87;52.13;102146.13;2100560;28;1969;-64
2021/10/19 04:37:56;;;;;;;;;;;;;;;23.87;49.68;102147.97;2100699;28;890;-64
2021/10/19 04:38:56;;;;;;;;;;;;;;;23.90;50.42;102145.19;2100723;28;791;-65
2021/10/19 04:39:56;;;;;;;;;;;;;;;24.00;49.09;102141.31;2100689;28;846;-63
2021/10/19 04:40:57;;;;;;;;;;;;;;;24.04;50.36;102150.22;2100697;28;898;-65
2021/10/19 04:41:57;;;;;;;;;;;;;;;24.03;50.71;102146.66;2100629;28;803;-65
2021/10/19 04:42:57;;;;;;;;;;;;;;;24.10;49.11;102139.25;2100597;28;1008;-64
2021/10/19 04:43:58;;;;;;;;;;;;;;;23.98;50.95;102143.16;2100498;28;767;-64
2021/10/19 04:44:58;;;;;;;;;;;;;;;24.03;49.35;102141.25;2100700;28;752;-65
2021/10/19 04:45:58;;;;;;;;;;;;;;;24.04;50.74;102143.03;2100613;28;953;-64
2021/10/19 04:46:58;;;;;;;;;;;;;;;24.03;51.59;102143.03;2108280;28;953;-65
2021/10/19 04:48:01;;;;;;;;;;;;;;;24.06;51.88;102142.97;2108383;28;1039;-64
2021/10/19 04:49:01;;;;;;;;;;;;;;;24.06;50.93;102142.97;2100595;28;794;-65
2021/10/19 04:50:01;;;;;;;;;;;;;;;24.05;52.94;102139.38;2100604;28;973;-65
2021/10/19 04:51:01;;;;;;;;;;;;;;;24.08;49.68;102139.28;2100655;28;830;-64
2021/10/19 04:52:01;;;;;;;;;;;;;;;24.15;50.95;102155.34;2100601;28;751;-65
2021/10/19 04:53:02;;;;;;;;;;;;;;;24.17;52.54;102145.34;2100451;28;829;-64
2021/10/19 04:54:02;;;;;;;;;;;;;;;24.15;52.30;102141.81;2100612;28;825;-64
2021/10/19 04:55:02;;;;;;;;;;;;;;;24.12;49.87;102141.00;2100566;28;968;-64
2021/10/19 04:56:03;;;;;;;;;;;;;;;24.22;51.75;102136.19;2100329;28;1902;-64
2021/10/19 04:57:03;;;;;;;;;;;;;;;24.25;51.14;102138.81;2100287;28;1381;-65
2021/10/19 04:58:03;;;;;;;;;;;;;;;24.30;51.96;102144.09;2100555;28;1032;-64
2021/10/19 04:59:03;;;;;;;;;;;;;;;24.32;52.45;102136.81;2100587;28;846;-64
2021/10/19 05:00:04;;;;;;;;;;;;;;;24.21;51.24;102136.22;2100374;28;1040;-66
2021/10/19 05:01:04;;;;;;;;;;;;;;;24.24;52.18;102125.31;2100474;28;921;-65
2021/10/19 05:02:04;;;;;;;;;;;;;;;24.28;49.47;102124.28;2100510;28;762;-65
2021/10/19 05:03:04;;;;;;;;;;;;;;;24.31;49.66;102121.47;2100499;28;1213;-64
2021/10/19 05:04:05;;;;;;;;;;;;;;;24.32;51.37;102130.50;2100487;28;977;-64
2021/10/19 05:05:05;;;;;;;;;;;;;;;24.39;51.11;102122.16;2100442;28;909;-65
2021/10/19 05:06:05;;;;;;;;;;;;;;;24.39;50.84;102118.56;2100391;28;1157;-65
2021/10/19 05:07:05;;;;;;;;;;;;;;;24.45;47.16;102110.25;2091592;28;1437;-64
2021/10/19 05:08:05;;;;;;;;;;;;;;;24.46;50.79;102117.44;2091639;28;1047;-65
2021/10/19 05:09:05;;;;;;;;;;;;;;;24.50;52.65;102119.13;2100376;28;805;-65
2021/10/19 05:10:06;;;;;;;;;;;;;;;24.48;54.20;102110.16;2100402;28;858;-63
2021/10/19 05:11:06;;;;;;;;;;;;;;;24.44;53.58;102113.88;2100367;28;1306;-65
2021/10/19 05:12:07;;;;;;;;;;;;;;;24.39;50.00;102114.03;2100454;28;824;-63
2021/10/19 05:13:07;;;;;;;;;;;;;;;24.45;51.89;102120.19;2100254;28;924;-65
2021/10/19 05:14:07;;;;;;;;;;;;;;;24.45;51.93;102107.53;2100372;28;877;-64
2021/10/19 05:15:08;;;;;;;;;;;;;;;24.56;50.27;102116.22;2100280;28;834;-64
2021/10/19 05:16:08;;;;;;;;;;;;;;;24.51;52.46;102110.06;2100337;28;1957;-65
2021/10/19 05:17:10;;;;;;;;;;;;;;;24.53;50.74;102110.91;2100375;28;960;-65
2021/10/19 05:18:10;;;;;;;;;;;;;;;24.54;51.06;102109.09;2100499;28;790;-64
2021/10/19 05:19:10;;;;;;;;;;;;;;;24.46;52.18;102112.00;2100388;28;838;-65